createdAt,value
2019-02-18T00:02:22.505Z,100821.72
2019-02-18T00:04:51.453Z,100818.09
2019-02-18T00:07:20.379Z,100818.95
2019-02-18T00:09:49.310Z,100819.25
2019-02-18T00:12:18.271Z,100821.70
2019-02-18T00:14:47.210Z,100818.11
2019-02-18T00:17:16.077Z,100818.33
2019-02-18T00:19:45.014Z,100820.40
2019-02-18T00:22:13.971Z,100819.05
2019-02-18T00:24:42.908Z,100815.96
2019-02-18T00:27:11.784Z,100816.30
2019-02-18T00:29:40.739Z,100806.59
2019-02-18T00:32:09.756Z,100817.35
2019-02-18T00:34:38.652Z,100819.88
2019-02-18T00:37:07.542Z,100820.68
2019-02-18T00:39:36.390Z,100818.02
2019-02-18T00:42:05.343Z,100816.20
2019-02-18T00:44:34.288Z,100811.30
2019-02-18T00:47:03.216Z,100816.07
2019-02-18T00:49:32.174Z,100820.33
2019-02-18T00:52:00.995Z,100813.18
2019-02-18T00:54:29.988Z,100817.11
2019-02-18T00:56:58.919Z,100814.02
2019-02-18T00:59:27.853Z,100813.14
2019-02-18T01:01:56.723Z,100814.82
2019-02-18T01:04:25.661Z,100816.79
2019-02-18T01:06:54.622Z,100811.84
2019-02-18T01:09:23.541Z,100804.75
2019-02-18T01:11:52.525Z,100803.39
2019-02-18T01:14:21.439Z,100802.92
2019-02-18T01:16:50.327Z,100801.20
2019-02-18T01:19:19.239Z,100797.61
2019-02-18T01:21:48.221Z,100799.76
2019-02-18T01:24:17.082Z,100800.88
2019-02-18T01:26:46.010Z,100798.17
2019-02-18T01:29:14.917Z,100789.81
2019-02-18T01:31:43.862Z,100794.48
2019-02-18T01:34:12.831Z,100786.59
2019-02-18T01:36:41.666Z,100784.31
2019-02-18T01:39:10.556Z,100782.81
2019-02-18T01:41:39.478Z,100790.14
2019-02-18T01:44:08.408Z,100785.23
2019-02-18T01:46:37.346Z,100781.73
2019-02-18T01:49:06.208Z,100785.18
2019-02-18T01:51:35.157Z,100782.37
2019-02-18T01:54:04.012Z,100783.13
2019-02-18T01:56:32.963Z,100776.59
2019-02-18T01:59:01.868Z,100779.25
2019-02-18T02:01:30.802Z,100779.20
2019-02-18T02:03:59.739Z,100775.23
2019-02-18T02:06:28.665Z,100775.59
2019-02-18T02:08:57.611Z,100777.33
2019-02-18T02:11:26.517Z,100778.20
2019-02-18T02:13:55.296Z,100774.66
2019-02-18T02:16:24.211Z,100776.44
2019-02-18T02:18:53.159Z,100771.48
2019-02-18T02:21:22.073Z,100774.98
2019-02-18T02:23:51.084Z,100769.39
2019-02-18T02:26:20.017Z,100767.57
2019-02-18T02:28:48.967Z,100766.64
2019-02-18T02:31:17.908Z,100772.70
2019-02-18T02:33:46.841Z,100764.86
2019-02-18T02:36:15.766Z,100764.34
2019-02-18T02:38:44.715Z,100768.63
2019-02-18T02:41:13.635Z,100767.28
2019-02-18T02:43:42.582Z,100768.12
2019-02-18T02:46:11.432Z,100763.25
2019-02-18T02:48:40.348Z,100758.35
2019-02-18T02:51:09.306Z,100763.94
2019-02-18T02:53:38.253Z,100765.62
2019-02-18T02:56:07.172Z,100766.92
2019-02-18T02:58:36.088Z,100769.43
2019-02-18T03:01:04.996Z,100773.61
2019-02-18T03:03:33.915Z,100769.58
2019-02-18T03:06:02.841Z,100769.53
2019-02-18T03:08:31.757Z,100774.75
2019-02-18T03:11:00.677Z,100766.88
2019-02-18T03:13:29.609Z,100773.34
2019-02-18T03:15:58.533Z,100777.21
2019-02-18T03:18:27.492Z,100773.61
2019-02-18T03:20:56.409Z,100767.97
2019-02-18T03:23:25.333Z,100765.73
2019-02-18T03:25:55.229Z,100774.81
2019-02-18T03:28:45.864Z,100769.08
2019-02-18T03:31:19.482Z,100768.97
2019-02-18T03:33:55.359Z,100769.32
2019-02-18T03:36:24.309Z,100769.73
2019-02-18T03:38:53.261Z,100772.71
2019-02-18T03:41:22.184Z,100770.42
2019-02-18T03:43:51.092Z,100759.47
2019-02-18T03:46:20.117Z,100760.72
2019-02-18T03:48:49.030Z,100761.55
2019-02-18T03:51:17.972Z,100762.33
2019-02-18T03:53:46.806Z,100769.20
2019-02-18T03:56:15.745Z,100771.28
2019-02-18T03:58:44.788Z,100770.81
2019-02-18T04:01:13.761Z,100769.82
2019-02-18T04:03:42.658Z,100769.71
2019-02-18T04:06:11.430Z,100774.05
2019-02-18T04:08:43.249Z,100773.05
2019-02-18T04:11:11.005Z,100773.30
2019-02-18T04:13:39.918Z,100774.89
2019-02-18T04:16:08.872Z,100768.63
2019-02-18T04:18:37.765Z,100775.09
2019-02-18T04:21:06.689Z,100767.22
2019-02-18T04:23:35.619Z,100767.58
2019-02-18T04:26:04.535Z,100761.38
2019-02-18T04:28:33.441Z,100766.98
2019-02-18T04:31:02.400Z,100768.53
2019-02-18T04:33:31.336Z,100770.97
2019-02-18T04:36:00.252Z,100772.69
2019-02-18T04:38:29.244Z,100768.31
2019-02-18T04:40:58.223Z,100767.42
2019-02-18T04:43:27.132Z,100774.77
2019-02-18T04:45:56.087Z,100773.88
2019-02-18T04:48:24.995Z,100769.91
2019-02-18T04:50:53.936Z,100767.48
2019-02-18T04:53:22.881Z,100767.25
2019-02-18T04:55:51.726Z,100771.94
2019-02-18T04:58:20.675Z,100767.50
2019-02-18T05:00:49.572Z,100770.45
2019-02-18T05:03:18.510Z,100767.38
2019-02-18T05:05:47.384Z,100769.91
2019-02-18T05:08:16.352Z,100767.19
2019-02-18T05:10:45.354Z,100767.48
2019-02-18T05:13:14.295Z,100763.16
2019-02-18T05:15:43.261Z,100759.73
2019-02-18T05:18:12.186Z,100751.86
2019-02-18T05:20:41.169Z,100749.61
2019-02-18T05:23:10.121Z,100751.33
2019-02-18T05:25:39.075Z,100751.69
2019-02-18T05:28:07.943Z,100753.41
2019-02-18T05:30:36.751Z,100753.34
2019-02-18T05:33:05.701Z,100748.50
2019-02-18T05:35:34.579Z,100745.06
2019-02-18T05:38:03.524Z,100746.83
2019-02-18T05:40:32.479Z,100752.40
2019-02-18T05:43:01.299Z,100750.09
2019-02-18T05:45:30.140Z,100754.69
2019-02-18T05:47:59.045Z,100753.20
2019-02-18T05:50:27.985Z,100753.50
2019-02-18T05:52:56.917Z,100755.16
2019-02-18T05:55:25.873Z,100758.12
2019-02-18T05:57:54.848Z,100754.98
2019-02-18T06:00:23.759Z,100749.34
2019-02-18T06:02:52.702Z,100750.17
2019-02-18T06:05:21.631Z,100751.05
2019-02-18T06:07:50.554Z,100747.86
2019-02-18T06:10:21.612Z,100753.19
2019-02-18T06:12:50.183Z,100744.84
2019-02-18T06:15:19.144Z,100744.84
2019-02-18T06:17:48.105Z,100750.58
2019-02-18T06:20:16.956Z,100752.23
2019-02-18T06:22:45.814Z,100753.06
2019-02-18T06:25:14.743Z,100755.25
2019-02-18T06:27:43.735Z,100755.25
2019-02-18T06:30:12.660Z,100751.29
2019-02-18T06:32:41.578Z,100753.89
2019-02-18T06:35:11.307Z,100743.77
2019-02-18T06:37:40.188Z,100761.99
2019-02-18T06:40:09.322Z,100764.35
2019-02-18T06:42:38.272Z,100762.04
2019-02-18T06:45:35.230Z,100762.78
2019-02-18T06:48:25.953Z,100765.67
2019-02-18T06:50:54.887Z,100767.52
2019-02-18T06:53:23.861Z,100757.97
2019-02-18T06:55:52.844Z,100757.97
2019-02-18T06:58:41.289Z,100770.30
2019-02-18T07:01:18.141Z,100769.61
2019-02-18T07:04:04.461Z,100777.13
2019-02-18T07:06:39.989Z,100781.23
2019-02-18T07:09:27.926Z,100782.00
2019-02-18T07:12:21.752Z,100776.06
2019-02-18T07:14:50.688Z,100776.92
2019-02-18T07:17:19.639Z,100770.41
2019-02-18T07:19:48.653Z,100775.25
2019-02-18T07:22:17.597Z,100763.87
2019-02-18T07:24:46.552Z,100769.88
2019-02-18T07:27:15.407Z,100755.86
2019-02-18T07:29:44.358Z,100759.98
2019-02-18T07:32:13.296Z,100758.25
2019-02-18T07:34:42.252Z,100756.28
2019-02-18T07:37:11.107Z,100757.94
2019-02-18T07:39:40.090Z,100756.42
2019-02-18T07:42:09.005Z,100755.18
2019-02-18T07:44:37.900Z,100757.38
2019-02-18T07:47:07.062Z,100758.67
2019-02-18T07:49:36.063Z,100758.95
2019-02-18T07:52:05.006Z,100752.17
2019-02-18T07:54:33.898Z,100752.03
2019-02-18T07:57:02.848Z,100755.61
2019-02-18T07:59:31.735Z,100757.50
2019-02-18T08:02:00.673Z,100757.98
2019-02-18T08:04:29.687Z,100761.02
2019-02-18T08:06:58.618Z,100765.14
2019-02-18T08:09:27.703Z,100763.78
2019-02-18T08:11:56.649Z,100760.67
2019-02-18T08:14:25.647Z,100756.69
2019-02-18T08:16:54.577Z,100751.01
2019-02-18T08:19:23.513Z,100760.72
2019-02-18T08:21:52.525Z,100747.42
2019-02-18T08:24:21.477Z,100736.62
2019-02-18T08:26:50.423Z,100745.69
2019-02-18T08:29:19.376Z,100743.44
2019-02-18T08:31:48.330Z,100742.97
2019-02-18T08:34:17.320Z,100735.64
2019-02-18T08:36:46.291Z,100731.15
2019-02-18T08:39:15.253Z,100729.88
2019-02-18T08:41:44.232Z,100719.78
2019-02-18T08:44:13.178Z,100727.08
2019-02-18T08:46:42.274Z,100724.23
2019-02-18T08:49:11.234Z,100723.70
2019-02-18T08:51:40.196Z,100715.63
2019-02-18T08:54:09.136Z,100713.80
2019-02-18T08:56:38.109Z,100711.77
2019-02-18T08:59:06.989Z,100705.02
2019-02-18T09:01:35.963Z,100704.91
2019-02-18T09:04:04.960Z,100699.94
2019-02-18T09:06:33.921Z,100706.11
2019-02-18T09:09:02.867Z,100697.63
2019-02-18T09:11:31.811Z,100687.28
2019-02-18T09:14:00.749Z,100682.80
2019-02-18T09:16:29.679Z,100681.95
2019-02-18T09:18:58.621Z,100677.87
2019-02-18T09:24:22.484Z,100677.38
2019-02-18T09:26:51.564Z,100673.72
2019-02-18T09:29:20.511Z,100671.25
2019-02-18T09:31:49.463Z,100667.81
2019-02-18T09:34:18.389Z,100665.14
2019-02-18T09:36:47.346Z,100670.63
2019-02-18T09:39:30.092Z,100663.95
2019-02-18T09:41:49.386Z,100667.84
2019-02-18T09:44:18.383Z,100669.74
2019-02-18T09:46:47.353Z,100660.22
2019-02-18T09:49:16.262Z,100654.53
2019-02-18T09:51:45.245Z,100655.95
2019-02-18T09:54:14.184Z,100654.11
2019-02-18T09:56:43.142Z,100657.39
2019-02-18T09:59:14.715Z,100646.59
2019-02-18T10:01:43.710Z,100647.20
2019-02-18T10:04:13.031Z,100645.21
2019-02-18T10:06:41.992Z,100644.44
2019-02-18T10:09:10.952Z,100649.17
2019-02-18T10:11:39.829Z,100646.77
2019-02-18T10:14:08.815Z,100641.16
2019-02-18T10:16:37.779Z,100633.85
2019-02-18T10:19:06.677Z,100629.45
2019-02-18T10:21:35.615Z,100631.50
2019-02-18T10:24:04.477Z,100627.94
2019-02-18T10:26:33.480Z,100620.51
2019-02-18T10:29:02.497Z,100620.80
2019-02-18T10:31:31.479Z,100615.30
2019-02-18T10:34:00.445Z,100614.21
2019-02-18T10:36:29.381Z,100611.20
2019-02-18T10:38:58.387Z,100607.81
2019-02-18T10:41:27.362Z,100605.58
2019-02-18T10:43:56.315Z,100599.66
2019-02-18T10:46:25.306Z,100598.93
2019-02-18T10:48:54.300Z,100588.52
2019-02-18T10:51:23.262Z,100590.33
2019-02-18T10:53:53.154Z,100579.77
2019-02-18T10:56:22.172Z,100589.50
2019-02-18T10:58:51.140Z,100581.96
2019-02-18T11:01:20.104Z,100574.77
2019-02-18T11:03:49.132Z,100581.98
2019-02-18T11:06:18.080Z,100579.36
2019-02-18T11:08:47.045Z,100573.29
2019-02-18T11:11:17.190Z,100576.48
2019-02-18T11:13:46.234Z,100573.34
2019-02-18T11:16:15.201Z,100572.94
2019-02-18T11:18:44.160Z,100566.22
2019-02-18T11:21:13.324Z,100560.91
2019-02-18T11:23:42.355Z,100549.44
2019-02-18T11:26:11.389Z,100548.12
2019-02-18T11:28:40.318Z,100550.59
2019-02-18T11:31:09.246Z,100542.92
2019-02-18T11:33:38.207Z,100542.72
2019-02-18T11:36:10.281Z,100540.25
2019-02-18T11:38:39.278Z,100541.39
2019-02-18T11:41:08.275Z,100529.50
2019-02-18T11:43:37.209Z,100531.28
2019-02-18T11:46:06.163Z,100530.02
2019-02-18T11:48:35.570Z,100527.91
2019-02-18T11:51:04.461Z,100524.87
2019-02-18T11:53:33.428Z,100527.06
2019-02-18T11:56:02.393Z,100529.61
2019-02-18T11:58:31.351Z,100523.61
2019-02-18T12:01:00.322Z,100522.45
2019-02-18T12:03:29.456Z,100513.45
2019-02-18T12:05:58.358Z,100510.01
2019-02-18T12:08:27.260Z,100517.30
2019-02-18T12:10:56.241Z,100442.06
2019-02-18T12:13:25.196Z,100503.06
2019-02-18T12:15:54.146Z,100500.44
2019-02-18T12:18:23.079Z,100491.80
2019-02-18T12:20:52.074Z,100489.18
2019-02-18T12:23:21.084Z,100489.91
2019-02-18T12:25:50.006Z,100478.38
2019-02-18T12:28:19.003Z,100481.05
2019-02-18T12:30:47.988Z,100475.55
2019-02-18T12:33:16.955Z,100474.67
2019-02-18T12:35:46.159Z,100473.03
2019-02-18T12:38:17.346Z,100470.81
2019-02-18T12:40:45.747Z,100463.08
2019-02-18T12:43:14.737Z,100463.08
2019-02-18T12:45:43.609Z,100455.37
2019-02-18T12:48:12.606Z,100449.38
2019-02-18T12:50:41.621Z,100447.67
2019-02-18T12:53:10.580Z,100447.84
2019-02-18T12:55:39.554Z,100440.75
2019-02-18T12:58:08.528Z,100435.84
2019-02-18T13:00:37.480Z,100432.34
2019-02-18T13:03:06.428Z,100427.11
2019-02-18T13:05:35.483Z,100424.39
2019-02-18T13:08:04.902Z,100425.15
2019-02-18T13:10:34.797Z,100418.86
2019-02-18T13:13:05.387Z,100405.66
2019-02-18T13:15:34.308Z,100405.40
2019-02-18T13:20:40.575Z,100398.98
2019-02-18T13:23:12.181Z,100389.41
2019-02-18T13:25:47.381Z,100385.35
2019-02-18T13:28:11.913Z,100376.09
2019-02-18T13:30:40.861Z,100376.72
2019-02-18T13:33:09.825Z,100371.52
2019-02-18T13:35:38.943Z,100372.19
2019-02-18T13:38:08.345Z,100370.99
2019-02-18T13:40:37.321Z,100370.94
2019-02-18T13:43:06.381Z,100373.05
2019-02-18T13:45:35.351Z,100368.22
2019-02-18T13:48:04.440Z,100359.27
2019-02-18T13:50:33.369Z,100361.99
2019-02-18T13:53:02.302Z,100354.91
2019-02-18T13:55:31.303Z,100354.97
2019-02-18T13:58:00.319Z,100359.95
2019-02-18T14:00:29.303Z,100355.89
2019-02-18T14:02:58.252Z,100348.70
2019-02-18T14:05:27.202Z,100349.58
2019-02-18T14:07:56.202Z,100348.80
2019-02-18T14:10:25.083Z,100346.84
2019-02-18T14:12:54.088Z,100347.30
2019-02-18T14:15:23.048Z,100343.30
2019-02-18T14:17:52.102Z,100337.97
2019-02-18T14:20:22.518Z,100343.36
2019-02-18T14:22:51.496Z,100343.65
2019-02-18T14:25:20.638Z,100341.25
2019-02-18T14:27:49.634Z,100333.57
2019-02-18T14:30:18.591Z,100338.41
2019-02-18T14:32:47.795Z,100334.03
2019-02-18T14:35:17.213Z,100337.06
2019-02-18T14:37:46.165Z,100330.19
2019-02-18T14:40:16.459Z,100326.80
2019-02-18T14:42:45.412Z,100327.72
2019-02-18T14:45:14.337Z,100323.91
2019-02-18T14:47:43.327Z,100333.41
2019-02-18T14:50:12.231Z,100330.92
2019-02-18T14:52:41.095Z,100331.75
2019-02-18T14:55:10.081Z,100322.86
2019-02-18T14:57:39.119Z,100321.16
2019-02-18T15:00:16.053Z,100323.57
2019-02-18T15:02:45.017Z,100323.41
2019-02-18T15:05:14.165Z,100316.22
2019-02-18T15:07:43.543Z,100314.73
2019-02-18T15:10:12.481Z,100315.05
2019-02-18T15:12:41.428Z,100305.39
2019-02-18T15:15:10.413Z,100307.80
2019-02-18T15:17:39.403Z,100309.45
2019-02-18T15:20:08.373Z,100309.70
2019-02-18T15:22:37.844Z,100300.55
2019-02-18T15:25:07.026Z,100303.68
2019-02-18T15:27:36.020Z,100308.51
2019-02-18T15:30:06.551Z,100300.59
2019-02-18T15:32:35.506Z,100302.02
2019-02-18T15:35:04.592Z,100301.20
2019-02-18T15:37:33.822Z,100293.88
2019-02-18T15:40:02.896Z,100294.42
2019-02-18T15:42:31.802Z,100296.77
2019-02-18T15:45:00.820Z,100293.45
2019-02-18T15:47:29.741Z,100288.58
2019-02-18T15:49:58.725Z,100287.22
2019-02-18T15:52:28.060Z,100286.14
2019-02-18T15:54:57.060Z,100279.69
2019-02-18T15:57:26.007Z,100277.23
2019-02-18T15:59:54.981Z,100265.53
2019-02-18T16:02:23.891Z,100272.44
2019-02-18T16:04:52.969Z,100263.86
2019-02-18T16:07:22.427Z,100271.59
2019-02-18T16:09:51.412Z,100266.92
2019-02-18T16:12:20.397Z,100266.71
2019-02-18T16:14:49.366Z,100273.22
2019-02-18T16:17:18.390Z,100268.73
2019-02-18T16:19:47.409Z,100262.87
2019-02-18T16:22:17.226Z,100262.36
2019-02-18T16:24:46.112Z,100256.59
2019-02-18T16:27:15.072Z,100248.52
2019-02-18T16:29:44.031Z,100252.48
2019-02-18T16:32:12.964Z,100249.57
2019-02-18T16:34:41.952Z,100245.20
2019-02-18T16:37:11.547Z,100243.61
2019-02-18T16:39:40.656Z,100248.28
2019-02-18T16:42:09.880Z,100248.95
2019-02-18T16:44:38.874Z,100244.70
2019-02-18T16:47:08.025Z,100236.98
2019-02-18T16:49:37.357Z,100237.22
2019-02-18T16:52:06.714Z,100236.20
2019-02-18T16:54:35.686Z,100228.95
2019-02-18T16:57:04.642Z,100232.25
2019-02-18T16:59:33.655Z,100230.70
2019-02-18T17:02:02.656Z,100231.73
2019-02-18T17:04:31.695Z,100235.44
2019-02-18T17:07:01.043Z,100234.73
2019-02-18T17:09:30.040Z,100234.04
2019-02-18T17:11:59.013Z,100243.45
2019-02-18T17:14:28.058Z,100245.00
2019-02-18T17:16:57.013Z,100250.95
2019-02-18T17:19:25.981Z,100247.59
2019-02-18T17:21:54.932Z,100246.47
2019-02-18T17:24:23.926Z,100236.00
2019-02-18T17:26:52.875Z,100234.38
2019-02-18T17:29:21.834Z,100229.20
2019-02-18T17:31:50.890Z,100225.86
2019-02-18T17:34:19.852Z,100224.63
2019-02-18T17:36:48.914Z,100224.30
2019-02-18T17:39:18.121Z,100227.95
2019-02-18T17:41:47.083Z,100224.54
2019-02-18T17:44:20.211Z,100219.76
2019-02-18T17:46:46.875Z,100215.91
2019-02-18T17:49:15.892Z,100216.91
2019-02-18T17:51:44.858Z,100215.72
2019-02-18T17:54:14.226Z,100221.52
2019-02-18T17:56:43.314Z,100222.86
2019-02-18T17:59:14.064Z,100217.66
2019-02-18T18:01:43.061Z,100222.53
2019-02-18T18:04:12.054Z,100225.23
2019-02-18T18:06:41.073Z,100228.80
2019-02-18T18:09:10.317Z,100228.42
2019-02-18T18:11:39.306Z,100228.89
2019-02-18T18:14:11.379Z,100230.69
2019-02-18T18:16:40.388Z,100234.24
2019-02-18T18:19:09.713Z,100231.23
2019-02-18T18:21:38.902Z,100238.77
2019-02-18T18:24:08.049Z,100234.91
2019-02-18T18:26:37.139Z,100234.50
2019-02-18T18:29:06.028Z,100231.88
2019-02-18T18:31:35.069Z,100235.44
2019-02-18T18:34:04.020Z,100237.67
2019-02-18T18:36:33.073Z,100235.50
2019-02-18T18:39:02.657Z,100234.23
2019-02-18T18:41:31.822Z,100234.27
2019-02-18T18:44:01.148Z,100236.48
2019-02-18T18:46:30.129Z,100233.89
2019-02-18T18:48:59.582Z,100227.76
2019-02-18T18:51:28.708Z,100228.66
2019-02-18T18:53:57.918Z,100233.10
2019-02-18T18:56:26.888Z,100231.36
2019-02-18T18:58:56.257Z,100231.41
2019-02-18T19:01:25.676Z,100231.41
2019-02-18T19:03:54.684Z,100237.13
2019-02-18T19:06:23.839Z,100243.28
2019-02-18T19:08:53.139Z,100244.16
2019-02-18T19:11:22.218Z,100251.63
2019-02-18T19:13:52.060Z,100240.69
2019-02-18T19:16:21.386Z,100236.73
2019-02-18T19:18:50.730Z,100238.93
2019-02-18T19:21:20.479Z,100244.20
2019-02-18T19:23:49.486Z,100236.30
2019-02-18T19:26:18.533Z,100243.78
2019-02-18T19:28:48.127Z,100240.72
2019-02-18T19:31:17.909Z,100251.69
2019-02-18T19:33:47.666Z,100248.61
2019-02-18T19:36:16.944Z,100250.37
2019-02-18T19:38:46.191Z,100257.39
2019-02-18T19:41:15.456Z,100258.73
2019-02-18T19:43:50.170Z,100264.43
2019-02-18T19:46:15.924Z,100260.91
2019-02-18T19:48:45.074Z,100258.70
2019-02-18T19:51:14.766Z,100251.69
2019-02-18T19:53:44.466Z,100254.75
2019-02-18T19:56:13.998Z,100255.21
2019-02-18T19:58:43.757Z,100244.66
2019-02-18T20:01:12.918Z,100245.54
2019-02-18T20:03:43.250Z,100241.59
2019-02-18T20:06:12.619Z,100247.28
2019-02-18T20:08:42.062Z,100249.92
2019-02-18T20:11:11.839Z,100250.37
2019-02-18T20:13:40.907Z,100250.80
2019-02-18T20:16:11.673Z,100249.93
2019-02-18T20:18:41.010Z,100252.56
2019-02-18T20:21:10.059Z,100251.25
2019-02-18T20:23:39.459Z,100243.78
2019-02-18T20:26:08.522Z,100240.22
2019-02-18T20:28:37.613Z,100238.89
2019-02-18T20:31:06.866Z,100229.69
2019-02-18T20:33:35.879Z,100230.98
2019-02-18T20:36:05.086Z,100232.72
2019-02-18T20:38:34.196Z,100239.27
2019-02-18T20:41:03.524Z,100237.97
2019-02-18T20:43:32.877Z,100239.27
2019-02-18T20:46:01.925Z,100236.63
2019-02-18T20:48:30.879Z,100240.99
2019-02-18T20:51:00.054Z,100238.36
2019-02-18T20:53:29.384Z,100239.23
2019-02-18T20:55:58.850Z,100238.77
2019-02-18T20:58:28.078Z,100240.95
2019-02-18T21:00:57.496Z,100244.44
2019-02-18T21:03:26.584Z,100239.17
2019-02-18T21:05:55.698Z,100239.61
2019-02-18T21:08:25.366Z,100237.85
2019-02-18T21:10:54.351Z,100242.22
2019-02-18T21:13:23.458Z,100246.58
2019-02-18T21:15:52.565Z,100241.75
2019-02-18T21:18:21.648Z,100245.68
2019-02-18T21:20:51.302Z,100237.74
2019-02-18T21:23:20.286Z,100236.42
2019-02-18T21:25:49.297Z,100239.47
2019-02-18T21:28:18.272Z,100239.00
2019-02-18T21:30:47.413Z,100236.34
2019-02-18T21:33:16.425Z,100240.71
2019-02-18T21:35:45.537Z,100244.17
2019-02-18T21:38:14.534Z,100245.50
2019-02-18T21:40:43.475Z,100238.91
2019-02-18T21:43:12.464Z,100245.46
2019-02-18T21:45:41.439Z,100241.48
2019-02-18T21:48:10.359Z,100241.45
2019-02-18T21:50:39.334Z,100243.63
2019-02-18T21:53:08.303Z,100236.61
2019-02-18T21:55:37.289Z,100240.94
2019-02-18T21:58:06.208Z,100231.28
2019-02-18T22:00:35.178Z,100235.19
2019-02-18T22:03:04.188Z,100240.86
2019-02-18T22:05:33.145Z,100239.98
2019-02-18T22:08:02.096Z,100241.28
2019-02-18T22:10:31.063Z,100242.57
2019-02-18T22:13:00.089Z,100239.93
2019-02-18T22:15:29.032Z,100238.17
2019-02-18T22:17:58.371Z,100239.91
2019-02-18T22:20:27.389Z,100245.58
2019-02-18T22:22:56.370Z,100246.02
2019-02-18T22:25:25.340Z,100238.56
2019-02-18T22:27:54.288Z,100247.70
2019-02-18T22:30:23.450Z,100246.39
2019-02-18T22:32:52.613Z,100246.77
2019-02-18T22:35:21.795Z,100244.55
2019-02-18T22:37:51.058Z,100243.19
2019-02-18T22:40:20.276Z,100246.23
2019-02-18T22:42:49.417Z,100243.58
2019-02-18T22:45:18.595Z,100239.19
2019-02-18T22:47:47.777Z,100241.33
2019-02-18T22:50:17.152Z,100247.84
2019-02-18T22:52:46.345Z,100240.38
2019-02-18T22:55:15.572Z,100237.72
2019-02-18T22:57:44.749Z,100239.45
2019-02-18T23:01:00.751Z,100233.70
2019-02-18T23:03:29.939Z,100230.14
2019-02-18T23:05:59.062Z,100237.97
2019-02-18T23:08:28.219Z,100236.25
2019-02-18T23:10:57.744Z,100234.87
2019-02-18T23:13:26.928Z,100232.65
2019-02-18T23:15:56.569Z,100237.42
2019-02-18T23:18:25.865Z,100233.47
2019-02-18T23:20:55.045Z,100240.48
2019-02-18T23:23:24.272Z,100235.59
2019-02-18T23:25:53.415Z,100239.47
2019-02-18T23:28:22.579Z,100232.87
2019-02-18T23:30:51.753Z,100235.92
2019-02-18T23:33:20.906Z,100235.00
2019-02-18T23:35:50.113Z,100235.00
2019-02-18T23:38:19.255Z,100241.08
2019-02-18T23:40:48.466Z,100241.50
2019-02-18T23:43:18.437Z,100237.48
2019-02-18T23:45:47.589Z,100237.45
2019-02-18T23:48:16.728Z,100235.70
2019-02-18T23:50:45.859Z,100239.61
2019-02-18T23:53:15.007Z,100236.95
2019-02-18T23:55:44.130Z,100237.37
2019-02-18T23:58:13.264Z,100239.11
